Date,TemperatureHighF,TemperatureAvgF,TemperatureLowF,DewpointHighF,DewpointAvgF,DewpointLowF,HumidityHigh,HumidityAvg,HumidityLow,PressureMaxIn,PressureMinIn,WindSpeedMaxMPH,WindSpeedAvgMPH,GustSpeedMaxMPH,PrecipitationSumIn
2013-8-1,81,75,66,75,71,65,97,88,79,30.02,29.83,12,1,18,0.50
2013-8-2,86,77,68,76,71,67,98,82,62,29.98,29.86,5,1,9,0.00
2013-8-3,86,76,70,76,73,69,97,89,68,29.98,29.89,8,1,18,0.57
2013-8-4,80,74,67,72,67,60,98,80,51,30.00,29.85,7,1,14,0.00
2013-8-5,80,73,64,68,64,61,96,74,56,30.07,29.99,6,1,8,0.00
2013-8-6,71,68,66,67,65,62,97,89,74,30.11,30.01,8,2,12,0.38
2013-8-7,86,77,69,74,71,67,95,82,64,30.09,30.02,7,2,16,0.00
2013-8-8,85,79,72,77,74,70,94,84,69,30.07,30.00,8,2,13,0.00
2013-8-9,91,84,76,79,76,75,95,80,64,30.01,29.91,12,3,17,0.00
2013-8-10,87,80,75,79,76,72,98,88,75,30.07,29.96,11,2,30,0.89
2013-8-11,86,78,74,79,75,73,98,91,71,30.09,29.99,6,1,10,0.34
2013-8-12,87,80,74,79,76,72,96,87,73,30.02,29.91,6,1,12,0.00
2013-8-13,88,81,77,79,76,74,97,85,70,29.91,29.73,12,2,19,0.01
2013-8-14,77,72,68,75,61,52,96,70,52,30.07,29.74,11,4,23,0.00
2013-8-15,76,70,63,62,58,54,81,67,60,30.14,30.05,6,1,9,0.00
2013-8-16,75,70,61,67,61,57,91,75,63,30.16,30.08,6,1,13,0.00
2013-8-17,75,72,70,71,69,67,97,90,81,30.20,30.12,17,3,17,0.40
2013-8-18,72,71,70,71,71,70,98,98,97,30.12,30.07,8,2,15,0.50
2013-8-19,73,72,70,71,70,69,96,94,92,30.11,30.09,1,0,4,0.00
2013-8-20,80,74,67,73,70,66,99,89,74,30.17,30.09,5,0,7,0.00
2013-8-21,85,76,69,77,72,68,98,88,74,30.21,30.09,7,1,13,0.00
2013-8-22,87,79,73,76,73,72,96,82,62,30.10,29.95,9,2,13,0.00
2013-8-23,85,75,66,74,71,63,94,86,67,30.04,29.92,8,1,14,0.13
2013-8-24,78,72,65,69,65,61,91,80,70,30.30,30.05,7,2,18,0.01
2013-8-25,76,70,60,64,60,58,92,73,58,30.38,30.28,9,2,13,0.00
2013-8-26,82,69,56,63,57,51,98,70,35,30.31,30.07,6,1,10,0.00
2013-8-27,88,77,66,73,66,58,79,69,53,30.07,29.90,10,2,12,0.00
2013-8-28,84,78,74,76,73,71,94,85,72,29.92,29.82,7,1,19,0.08
2013-8-29,79,75,72,74,72,67,97,90,79,30.00,29.77,11,2,18,0.05
2013-8-30,83,74,67,72,69,66,98,85,68,30.04,29.94,7,1,11,0.00
2013-8-31,88,78,69,74,71,68,97,81,57,29.95,29.84,5,1,13,0.00